sensor_id;sensor_type;location;lat;lon;timestamp;P1;durP1;ratioP1;P2;durP2;ratioP2
22470;SDS011;11402;51.374;6.594;2022-11-20T00:00:54;29.92;;;19.48;;
22470;SDS011;11402;51.374;6.594;2022-11-20T00:03:20;29.52;;;19.02;;
22470;SDS011;11402;51.374;6.594;2022-11-20T00:05:47;28.50;;;19.05;;
22470;SDS011;11402;51.374;6.594;2022-11-20T00:08:12;33.45;;;20.48;;
22470;SDS011;11402;51.374;6.594;2022-11-20T00:10:38;38.17;;;22.00;;
22470;SDS011;11402;51.374;6.594;2022-11-20T00:13:04;34.10;;;20.20;;
22470;SDS011;11402;51.374;6.594;2022-11-20T00:15:30;34.58;;;21.17;;
22470;SDS011;11402;51.374;6.594;2022-11-20T00:17:56;32.75;;;21.58;;
22470;SDS011;11402;51.374;6.594;2022-11-20T00:20:21;35.50;;;21.42;;
22470;SDS011;11402;51.374;6.594;2022-11-20T00:22:47;34.25;;;22.60;;
22470;SDS011;11402;51.374;6.594;2022-11-20T00:25:14;33.10;;;21.33;;
22470;SDS011;11402;51.374;6.594;2022-11-20T00:27:39;33.35;;;21.58;;
22470;SDS011;11402;51.374;6.594;2022-11-20T00:30:05;33.55;;;21.20;;
22470;SDS011;11402;51.374;6.594;2022-11-20T00:32:31;33.33;;;20.67;;
22470;SDS011;11402;51.374;6.594;2022-11-20T00:34:57;36.40;;;20.92;;
22470;SDS011;11402;51.374;6.594;2022-11-20T00:37:22;36.00;;;22.52;;
22470;SDS011;11402;51.374;6.594;2022-11-20T00:39:48;35.80;;;23.20;;
22470;SDS011;11402;51.374;6.594;2022-11-20T00:42:13;33.13;;;22.15;;
22470;SDS011;11402;51.374;6.594;2022-11-20T00:44:39;35.65;;;22.58;;
22470;SDS011;11402;51.374;6.594;2022-11-20T00:47:05;35.22;;;22.70;;
22470;SDS011;11402;51.374;6.594;2022-11-20T00:49:30;36.60;;;23.02;;
22470;SDS011;11402;51.374;6.594;2022-11-20T00:51:56;36.17;;;22.83;;
22470;SDS011;11402;51.374;6.594;2022-11-20T00:54:21;37.00;;;22.77;;
22470;SDS011;11402;51.374;6.594;2022-11-20T00:56:47;36.33;;;23.17;;
22470;SDS011;11402;51.374;6.594;2022-11-20T00:59:12;36.85;;;23.35;;
22470;SDS011;11402;51.374;6.594;2022-11-20T01:01:38;36.20;;;23.77;;
22470;SDS011;11402;51.374;6.594;2022-11-20T01:04:04;36.15;;;23.45;;
22470;SDS011;11402;51.374;6.594;2022-11-20T01:06:31;35.92;;;23.05;;
22470;SDS011;11402;51.374;6.594;2022-11-20T01:09:00;35.42;;;23.30;;
22470;SDS011;11402;51.374;6.594;2022-11-20T01:11:29;38.88;;;23.63;;
22470;SDS011;11402;51.374;6.594;2022-11-20T01:13:57;34.40;;;23.25;;
22470;SDS011;11402;51.374;6.594;2022-11-20T01:16:25;37.05;;;23.17;;
22470;SDS011;11402;51.374;6.594;2022-11-20T01:18:57;38.83;;;24.88;;
22470;SDS011;11402;51.374;6.594;2022-11-20T01:21:26;36.47;;;23.33;;
22470;SDS011;11402;51.374;6.594;2022-11-20T01:24:03;37.75;;;23.45;;
22470;SDS011;11402;51.374;6.594;2022-11-20T01:26:31;37.08;;;24.30;;
22470;SDS011;11402;51.374;6.594;2022-11-20T01:28:58;39.50;;;24.42;;
22470;SDS011;11402;51.374;6.594;2022-11-20T01:31:26;37.15;;;23.13;;
22470;SDS011;11402;51.374;6.594;2022-11-20T01:33:57;41.70;;;24.10;;
22470;SDS011;11402;51.374;6.594;2022-11-20T01:36:25;35.35;;;23.63;;
22470;SDS011;11402;51.374;6.594;2022-11-20T01:38:53;35.90;;;23.88;;
22470;SDS011;11402;51.374;6.594;2022-11-20T01:41:20;40.00;;;23.85;;
22470;SDS011;11402;51.374;6.594;2022-11-20T01:44:05;36.45;;;23.27;;
22470;SDS011;11402;51.374;6.594;2022-11-20T01:46:31;41.13;;;23.23;;
22470;SDS011;11402;51.374;6.594;2022-11-20T01:49:14;40.25;;;24.38;;
22470;SDS011;11402;51.374;6.594;2022-11-20T01:52:04;38.53;;;22.63;;
22470;SDS011;11402;51.374;6.594;2022-11-20T01:54:38;38.67;;;22.92;;
22470;SDS011;11402;51.374;6.594;2022-11-20T01:57:22;40.15;;;23.13;;
22470;SDS011;11402;51.374;6.594;2022-11-20T01:59:53;38.38;;;23.88;;
22470;SDS011;11402;51.374;6.594;2022-11-20T02:02:32;37.10;;;23.20;;
22470;SDS011;11402;51.374;6.594;2022-11-20T02:04:59;37.88;;;23.52;;
22470;SDS011;11402;51.374;6.594;2022-11-20T02:07:29;33.67;;;22.10;;
22470;SDS011;11402;51.374;6.594;2022-11-20T02:09:55;38.30;;;23.17;;
22470;SDS011;11402;51.374;6.594;2022-11-20T02:12:21;41.08;;;22.35;;
22470;SDS011;11402;51.374;6.594;2022-11-20T02:15:05;34.47;;;21.38;;
22470;SDS011;11402;51.374;6.594;2022-11-20T02:17:30;35.90;;;21.75;;
22470;SDS011;11402;51.374;6.594;2022-11-20T02:19:56;37.78;;;21.88;;
22470;SDS011;11402;51.374;6.594;2022-11-20T02:22:25;38.15;;;23.65;;
22470;SDS011;11402;51.374;6.594;2022-11-20T02:24:56;37.08;;;21.65;;
22470;SDS011;11402;51.374;6.594;2022-11-20T02:27:24;35.67;;;22.67;;
22470;SDS011;11402;51.374;6.594;2022-11-20T02:29:55;36.70;;;22.33;;
22470;SDS011;11402;51.374;6.594;2022-11-20T02:32:25;38.40;;;23.23;;
22470;SDS011;11402;51.374;6.594;2022-11-20T02:34:53;32.15;;;21.60;;
22470;SDS011;11402;51.374;6.594;2022-11-20T02:37:19;35.25;;;22.30;;
22470;SDS011;11402;51.374;6.594;2022-11-20T02:39:46;38.45;;;23.33;;
22470;SDS011;11402;51.374;6.594;2022-11-20T02:42:13;40.33;;;24.75;;
22470;SDS011;11402;51.374;6.594;2022-11-20T02:44:39;42.22;;;23.35;;
22470;SDS011;11402;51.374;6.594;2022-11-20T02:47:05;41.50;;;23.17;;
22470;SDS011;11402;51.374;6.594;2022-11-20T02:49:31;36.63;;;23.00;;
22470;SDS011;11402;51.374;6.594;2022-11-20T02:51:56;34.20;;;22.58;;
22470;SDS011;11402;51.374;6.594;2022-11-20T02:54:22;35.55;;;21.73;;
22470;SDS011;11402;51.374;6.594;2022-11-20T02:56:48;33.65;;;22.35;;
22470;SDS011;11402;51.374;6.594;2022-11-20T02:59:14;35.50;;;21.73;;
22470;SDS011;11402;51.374;6.594;2022-11-20T03:01:39;34.97;;;21.02;;
22470;SDS011;11402;51.374;6.594;2022-11-20T03:04:05;38.33;;;22.83;;
22470;SDS011;11402;51.374;6.594;2022-11-20T03:06:31;37.47;;;22.98;;
22470;SDS011;11402;51.374;6.594;2022-11-20T03:08:57;38.53;;;23.15;;
22470;SDS011;11402;51.374;6.594;2022-11-20T03:11:22;38.60;;;23.60;;
22470;SDS011;11402;51.374;6.594;2022-11-20T03:13:48;36.60;;;21.98;;
22470;SDS011;11402;51.374;6.594;2022-11-20T03:16:15;38.67;;;22.58;;
22470;SDS011;11402;51.374;6.594;2022-11-20T03:18:42;37.80;;;23.13;;
22470;SDS011;11402;51.374;6.594;2022-11-20T03:21:09;34.83;;;22.85;;
22470;SDS011;11402;51.374;6.594;2022-11-20T03:23:36;34.17;;;22.08;;
22470;SDS011;11402;51.374;6.594;2022-11-20T03:26:09;35.53;;;21.85;;
22470;SDS011;11402;51.374;6.594;2022-11-20T03:28:35;36.08;;;23.33;;
22470;SDS011;11402;51.374;6.594;2022-11-20T03:31:11;39.13;;;23.45;;
22470;SDS011;11402;51.374;6.594;2022-11-20T03:33:38;37.22;;;23.60;;
22470;SDS011;11402;51.374;6.594;2022-11-20T03:36:06;38.45;;;23.70;;
22470;SDS011;11402;51.374;6.594;2022-11-20T03:38:39;36.67;;;23.92;;
22470;SDS011;11402;51.374;6.594;2022-11-20T03:41:07;36.88;;;22.90;;
22470;SDS011;11402;51.374;6.594;2022-11-20T03:43:34;39.03;;;24.35;;
22470;SDS011;11402;51.374;6.594;2022-11-20T03:46:00;35.72;;;23.38;;
22470;SDS011;11402;51.374;6.594;2022-11-20T03:48:26;41.70;;;23.20;;
22470;SDS011;11402;51.374;6.594;2022-11-20T03:50:52;41.88;;;24.05;;
22470;SDS011;11402;51.374;6.594;2022-11-20T03:53:30;35.90;;;23.75;;
22470;SDS011;11402;51.374;6.594;2022-11-20T03:55:56;37.90;;;23.92;;
22470;SDS011;11402;51.374;6.594;2022-11-20T03:58:21;39.00;;;24.67;;
22470;SDS011;11402;51.374;6.594;2022-11-20T04:00:47;39.67;;;24.25;;
22470;SDS011;11402;51.374;6.594;2022-11-20T04:03:12;38.63;;;25.23;;
22470;SDS011;11402;51.374;6.594;2022-11-20T04:05:38;39.47;;;25.95;;
22470;SDS011;11402;51.374;6.594;2022-11-20T04:08:04;37.55;;;23.80;;
22470;SDS011;11402;51.374;6.594;2022-11-20T04:10:30;40.92;;;24.38;;
22470;SDS011;11402;51.374;6.594;2022-11-20T04:12:55;39.17;;;24.58;;
22470;SDS011;11402;51.374;6.594;2022-11-20T04:15:21;37.92;;;24.02;;
22470;SDS011;11402;51.374;6.594;2022-11-20T04:17:46;36.58;;;24.77;;
22470;SDS011;11402;51.374;6.594;2022-11-20T04:20:12;39.45;;;23.50;;
22470;SDS011;11402;51.374;6.594;2022-11-20T04:22:37;36.65;;;23.55;;
22470;SDS011;11402;51.374;6.594;2022-11-20T04:25:03;36.40;;;23.30;;
22470;SDS011;11402;51.374;6.594;2022-11-20T04:27:30;40.47;;;23.95;;
22470;SDS011;11402;51.374;6.594;2022-11-20T04:29:56;33.08;;;22.58;;
22470;SDS011;11402;51.374;6.594;2022-11-20T04:32:21;40.13;;;23.42;;
22470;SDS011;11402;51.374;6.594;2022-11-20T04:34:47;36.15;;;23.33;;
22470;SDS011;11402;51.374;6.594;2022-11-20T04:37:12;39.63;;;22.92;;
22470;SDS011;11402;51.374;6.594;2022-11-20T04:39:38;37.35;;;23.30;;
22470;SDS011;11402;51.374;6.594;2022-11-20T04:42:03;36.25;;;23.05;;
22470;SDS011;11402;51.374;6.594;2022-11-20T04:44:47;34.83;;;21.98;;
22470;SDS011;11402;51.374;6.594;2022-11-20T04:47:13;35.22;;;21.60;;
22470;SDS011;11402;51.374;6.594;2022-11-20T04:49:38;36.78;;;21.55;;
22470;SDS011;11402;51.374;6.594;2022-11-20T04:52:04;34.67;;;22.23;;
22470;SDS011;11402;51.374;6.594;2022-11-20T04:54:30;35.38;;;21.70;;
22470;SDS011;11402;51.374;6.594;2022-11-20T04:56:55;37.22;;;21.77;;
22470;SDS011;11402;51.374;6.594;2022-11-20T04:59:21;33.72;;;22.17;;
22470;SDS011;11402;51.374;6.594;2022-11-20T05:01:47;35.42;;;22.00;;
22470;SDS011;11402;51.374;6.594;2022-11-20T05:04:12;36.45;;;21.30;;
22470;SDS011;11402;51.374;6.594;2022-11-20T05:06:38;34.72;;;21.73;;
22470;SDS011;11402;51.374;6.594;2022-11-20T05:09:03;30.35;;;19.80;;
22470;SDS011;11402;51.374;6.594;2022-11-20T05:11:29;33.67;;;21.40;;
22470;SDS011;11402;51.374;6.594;2022-11-20T05:13:58;33.00;;;21.17;;
22470;SDS011;11402;51.374;6.594;2022-11-20T05:16:24;31.25;;;20.00;;
22470;SDS011;11402;51.374;6.594;2022-11-20T05:18:50;34.25;;;20.63;;
22470;SDS011;11402;51.374;6.594;2022-11-20T05:21:16;31.70;;;20.63;;
22470;SDS011;11402;51.374;6.594;2022-11-20T05:23:43;31.73;;;20.50;;
22470;SDS011;11402;51.374;6.594;2022-11-20T05:26:16;31.30;;;20.02;;
22470;SDS011;11402;51.374;6.594;2022-11-20T05:28:44;34.35;;;20.02;;
22470;SDS011;11402;51.374;6.594;2022-11-20T05:31:13;34.25;;;21.90;;
22470;SDS011;11402;51.374;6.594;2022-11-20T05:33:41;35.10;;;21.00;;
22470;SDS011;11402;51.374;6.594;2022-11-20T05:36:08;32.33;;;20.92;;
22470;SDS011;11402;51.374;6.594;2022-11-20T05:38:35;32.45;;;21.13;;
22470;SDS011;11402;51.374;6.594;2022-11-20T05:41:04;30.52;;;19.73;;
22470;SDS011;11402;51.374;6.594;2022-11-20T05:43:32;32.58;;;19.77;;
22470;SDS011;11402;51.374;6.594;2022-11-20T05:45:58;33.42;;;21.15;;
22470;SDS011;11402;51.374;6.594;2022-11-20T05:48:24;30.92;;;20.58;;
22470;SDS011;11402;51.374;6.594;2022-11-20T05:50:50;32.88;;;20.75;;
22470;SDS011;11402;51.374;6.594;2022-11-20T05:53:15;34.15;;;21.45;;
22470;SDS011;11402;51.374;6.594;2022-11-20T05:55:41;30.88;;;19.75;;
22470;SDS011;11402;51.374;6.594;2022-11-20T05:58:07;31.75;;;21.10;;
22470;SDS011;11402;51.374;6.594;2022-11-20T06:00:32;34.85;;;21.88;;
22470;SDS011;11402;51.374;6.594;2022-11-20T06:02:58;34.28;;;21.80;;
22470;SDS011;11402;51.374;6.594;2022-11-20T06:05:23;33.53;;;21.67;;
22470;SDS011;11402;51.374;6.594;2022-11-20T06:07:49;36.72;;;22.35;;
22470;SDS011;11402;51.374;6.594;2022-11-20T06:10:14;33.70;;;20.90;;
22470;SDS011;11402;51.374;6.594;2022-11-20T06:12:40;32.67;;;21.00;;
22470;SDS011;11402;51.374;6.594;2022-11-20T06:15:06;32.00;;;20.88;;
22470;SDS011;11402;51.374;6.594;2022-11-20T06:17:31;34.78;;;21.25;;
22470;SDS011;11402;51.374;6.594;2022-11-20T06:19:57;34.15;;;22.33;;
22470;SDS011;11402;51.374;6.594;2022-11-20T06:22:23;32.38;;;20.55;;
22470;SDS011;11402;51.374;6.594;2022-11-20T06:24:48;34.35;;;20.70;;
22470;SDS011;11402;51.374;6.594;2022-11-20T06:27:14;31.65;;;21.48;;
22470;SDS011;11402;51.374;6.594;2022-11-20T06:29:40;34.35;;;21.55;;
22470;SDS011;11402;51.374;6.594;2022-11-20T06:32:05;32.85;;;21.05;;
22470;SDS011;11402;51.374;6.594;2022-11-20T06:34:31;33.42;;;21.08;;
22470;SDS011;11402;51.374;6.594;2022-11-20T06:36:56;34.03;;;21.10;;
22470;SDS011;11402;51.374;6.594;2022-11-20T06:39:22;33.38;;;21.27;;
22470;SDS011;11402;51.374;6.594;2022-11-20T06:41:47;32.58;;;20.95;;
22470;SDS011;11402;51.374;6.594;2022-11-20T06:44:13;30.98;;;20.95;;
22470;SDS011;11402;51.374;6.594;2022-11-20T06:46:39;34.28;;;21.25;;
22470;SDS011;11402;51.374;6.594;2022-11-20T06:49:04;32.45;;;21.23;;
22470;SDS011;11402;51.374;6.594;2022-11-20T06:51:30;33.88;;;19.60;;
22470;SDS011;11402;51.374;6.594;2022-11-20T06:53:57;34.72;;;20.90;;
22470;SDS011;11402;51.374;6.594;2022-11-20T06:56:22;32.95;;;21.10;;
22470;SDS011;11402;51.374;6.594;2022-11-20T06:58:48;36.25;;;21.45;;
22470;SDS011;11402;51.374;6.594;2022-11-20T07:01:14;34.95;;;21.10;;
22470;SDS011;11402;51.374;6.594;2022-11-20T07:03:40;32.05;;;21.52;;
22470;SDS011;11402;51.374;6.594;2022-11-20T07:06:06;30.75;;;20.33;;
22470;SDS011;11402;51.374;6.594;2022-11-20T07:08:32;31.58;;;21.25;;
22470;SDS011;11402;51.374;6.594;2022-11-20T07:10:59;31.25;;;20.13;;
22470;SDS011;11402;51.374;6.594;2022-11-20T07:13:26;33.17;;;21.23;;
22470;SDS011;11402;51.374;6.594;2022-11-20T07:15:53;33.72;;;21.42;;
22470;SDS011;11402;51.374;6.594;2022-11-20T07:18:18;34.25;;;21.30;;
22470;SDS011;11402;51.374;6.594;2022-11-20T07:20:44;33.03;;;21.73;;
22470;SDS011;11402;51.374;6.594;2022-11-20T07:23:10;32.33;;;20.50;;
22470;SDS011;11402;51.374;6.594;2022-11-20T07:25:35;32.63;;;21.80;;
22470;SDS011;11402;51.374;6.594;2022-11-20T07:28:01;39.72;;;22.48;;
22470;SDS011;11402;51.374;6.594;2022-11-20T07:30:29;33.60;;;22.52;;
22470;SDS011;11402;51.374;6.594;2022-11-20T07:32:55;33.10;;;22.00;;
22470;SDS011;11402;51.374;6.594;2022-11-20T07:35:21;33.15;;;22.00;;
22470;SDS011;11402;51.374;6.594;2022-11-20T07:37:48;32.78;;;22.05;;
22470;SDS011;11402;51.374;6.594;2022-11-20T07:40:14;35.20;;;21.67;;
22470;SDS011;11402;51.374;6.594;2022-11-20T07:42:47;37.10;;;22.35;;
22470;SDS011;11402;51.374;6.594;2022-11-20T07:45:13;31.63;;;21.17;;
22470;SDS011;11402;51.374;6.594;2022-11-20T07:47:39;31.85;;;21.50;;
22470;SDS011;11402;51.374;6.594;2022-11-20T07:50:05;36.55;;;24.05;;
22470;SDS011;11402;51.374;6.594;2022-11-20T07:52:30;33.17;;;21.83;;
22470;SDS011;11402;51.374;6.594;2022-11-20T07:54:56;33.65;;;21.83;;
22470;SDS011;11402;51.374;6.594;2022-11-20T07:57:22;35.75;;;23.23;;
22470;SDS011;11402;51.374;6.594;2022-11-20T07:59:47;34.88;;;22.33;;
22470;SDS011;11402;51.374;6.594;2022-11-20T08:02:13;40.60;;;23.35;;
22470;SDS011;11402;51.374;6.594;2022-11-20T08:04:38;35.47;;;23.30;;
22470;SDS011;11402;51.374;6.594;2022-11-20T08:07:04;39.42;;;23.17;;
22470;SDS011;11402;51.374;6.594;2022-11-20T08:09:29;35.53;;;22.67;;
22470;SDS011;11402;51.374;6.594;2022-11-20T08:11:55;51.72;;;23.52;;
22470;SDS011;11402;51.374;6.594;2022-11-20T08:14:39;36.05;;;22.52;;
22470;SDS011;11402;51.374;6.594;2022-11-20T08:17:04;32.10;;;21.75;;
22470;SDS011;11402;51.374;6.594;2022-11-20T08:19:30;34.30;;;22.25;;
22470;SDS011;11402;51.374;6.594;2022-11-20T08:21:55;64.85;;;23.45;;
22470;SDS011;11402;51.374;6.594;2022-11-20T08:24:21;38.88;;;23.10;;
22470;SDS011;11402;51.374;6.594;2022-11-20T08:26:46;32.92;;;21.45;;
22470;SDS011;11402;51.374;6.594;2022-11-20T08:29:12;29.65;;;21.35;;
22470;SDS011;11402;51.374;6.594;2022-11-20T08:31:38;33.55;;;22.02;;
22470;SDS011;11402;51.374;6.594;2022-11-20T08:34:03;34.17;;;22.73;;
22470;SDS011;11402;51.374;6.594;2022-11-20T08:36:32;29.73;;;21.42;;
22470;SDS011;11402;51.374;6.594;2022-11-20T08:38:58;33.50;;;22.50;;
22470;SDS011;11402;51.374;6.594;2022-11-20T08:41:23;33.78;;;22.20;;
22470;SDS011;11402;51.374;6.594;2022-11-20T08:43:50;38.70;;;22.00;;
22470;SDS011;11402;51.374;6.594;2022-11-20T08:46:17;33.83;;;22.30;;
22470;SDS011;11402;51.374;6.594;2022-11-20T08:48:43;37.75;;;24.25;;
22470;SDS011;11402;51.374;6.594;2022-11-20T08:51:09;39.92;;;23.60;;
22470;SDS011;11402;51.374;6.594;2022-11-20T08:53:35;36.55;;;23.58;;
22470;SDS011;11402;51.374;6.594;2022-11-20T08:56:01;37.40;;;24.08;;
22470;SDS011;11402;51.374;6.594;2022-11-20T08:58:26;36.20;;;22.33;;
22470;SDS011;11402;51.374;6.594;2022-11-20T09:00:52;34.70;;;23.17;;
22470;SDS011;11402;51.374;6.594;2022-11-20T09:03:18;34.38;;;22.63;;
22470;SDS011;11402;51.374;6.594;2022-11-20T09:05:44;32.67;;;22.58;;
22470;SDS011;11402;51.374;6.594;2022-11-20T09:08:10;36.35;;;22.50;;
22470;SDS011;11402;51.374;6.594;2022-11-20T09:10:35;35.28;;;22.58;;
22470;SDS011;11402;51.374;6.594;2022-11-20T09:13:01;35.90;;;23.88;;
22470;SDS011;11402;51.374;6.594;2022-11-20T09:15:27;36.58;;;24.05;;
22470;SDS011;11402;51.374;6.594;2022-11-20T09:17:53;43.78;;;26.20;;
22470;SDS011;11402;51.374;6.594;2022-11-20T09:28:06;37.20;;;25.15;;
22470;SDS011;11402;51.374;6.594;2022-11-20T09:30:31;38.47;;;25.90;;
22470;SDS011;11402;51.374;6.594;2022-11-20T09:32:57;35.75;;;25.75;;
22470;SDS011;11402;51.374;6.594;2022-11-20T09:35:23;38.30;;;25.88;;
22470;SDS011;11402;51.374;6.594;2022-11-20T09:37:48;39.92;;;25.45;;
22470;SDS011;11402;51.374;6.594;2022-11-20T09:40:19;49.58;;;28.60;;
22470;SDS011;11402;51.374;6.594;2022-11-20T09:42:52;40.08;;;27.75;;
22470;SDS011;11402;51.374;6.594;2022-11-20T09:50:43;42.75;;;26.50;;
22470;SDS011;11402;51.374;6.594;2022-11-20T09:53:24;37.85;;;24.80;;
22470;SDS011;11402;51.374;6.594;2022-11-20T09:56:10;40.75;;;25.58;;
22470;SDS011;11402;51.374;6.594;2022-11-20T09:58:46;40.58;;;25.20;;
22470;SDS011;11402;51.374;6.594;2022-11-20T10:01:15;38.33;;;23.65;;
22470;SDS011;11402;51.374;6.594;2022-11-20T10:04:11;41.58;;;24.85;;
22470;SDS011;11402;51.374;6.594;2022-11-20T10:06:47;40.75;;;24.80;;
22470;SDS011;11402;51.374;6.594;2022-11-20T10:20:14;35.25;;;23.00;;
22470;SDS011;11402;51.374;6.594;2022-11-20T10:25:47;36.08;;;23.60;;
22470;SDS011;11402;51.374;6.594;2022-11-20T10:28:34;37.13;;;23.70;;
22470;SDS011;11402;51.374;6.594;2022-11-20T10:34:11;42.20;;;25.52;;
22470;SDS011;11402;51.374;6.594;2022-11-20T10:36:46;41.03;;;24.85;;
22470;SDS011;11402;51.374;6.594;2022-11-20T10:42:20;47.55;;;28.48;;
22470;SDS011;11402;51.374;6.594;2022-11-20T10:45:16;45.88;;;26.08;;
22470;SDS011;11402;51.374;6.594;2022-11-20T10:50:32;41.45;;;23.20;;
22470;SDS011;11402;51.374;6.594;2022-11-20T10:55:50;43.55;;;23.63;;
22470;SDS011;11402;51.374;6.594;2022-11-20T10:58:30;40.33;;;23.05;;
22470;SDS011;11402;51.374;6.594;2022-11-20T11:01:16;43.38;;;23.35;;
22470;SDS011;11402;51.374;6.594;2022-11-20T11:03:43;44.30;;;23.67;;
22470;SDS011;11402;51.374;6.594;2022-11-20T11:08:45;45.45;;;24.58;;
22470;SDS011;11402;51.374;6.594;2022-11-20T11:13:48;44.30;;;24.17;;
22470;SDS011;11402;51.374;6.594;2022-11-20T11:16:21;44.10;;;24.15;;
22470;SDS011;11402;51.374;6.594;2022-11-20T11:18:48;44.92;;;23.42;;
22470;SDS011;11402;51.374;6.594;2022-11-20T11:21:19;43.75;;;23.60;;
22470;SDS011;11402;51.374;6.594;2022-11-20T11:23:48;42.53;;;24.20;;
22470;SDS011;11402;51.374;6.594;2022-11-20T11:26:23;45.08;;;24.42;;
22470;SDS011;11402;51.374;6.594;2022-11-20T11:29:03;46.83;;;24.60;;
22470;SDS011;11402;51.374;6.594;2022-11-20T11:31:30;47.75;;;25.58;;
22470;SDS011;11402;51.374;6.594;2022-11-20T11:34:06;46.55;;;25.73;;
22470;SDS011;11402;51.374;6.594;2022-11-20T11:36:36;45.85;;;25.55;;
22470;SDS011;11402;51.374;6.594;2022-11-20T11:39:02;44.38;;;24.20;;
22470;SDS011;11402;51.374;6.594;2022-11-20T11:41:31;45.70;;;23.48;;
22470;SDS011;11402;51.374;6.594;2022-11-20T11:44:03;43.40;;;23.52;;
22470;SDS011;11402;51.374;6.594;2022-11-20T11:47:04;43.80;;;24.17;;
22470;SDS011;11402;51.374;6.594;2022-11-20T11:49:34;43.13;;;23.55;;
22470;SDS011;11402;51.374;6.594;2022-11-20T11:52:16;43.42;;;23.20;;
22470;SDS011;11402;51.374;6.594;2022-11-20T11:54:55;42.35;;;24.50;;
22470;SDS011;11402;51.374;6.594;2022-11-20T12:07:39;45.42;;;24.20;;
22470;SDS011;11402;51.374;6.594;2022-11-20T12:10:19;41.60;;;23.92;;
22470;SDS011;11402;51.374;6.594;2022-11-20T12:13:17;39.13;;;22.90;;
22470;SDS011;11402;51.374;6.594;2022-11-20T12:15:48;38.25;;;22.05;;
22470;SDS011;11402;51.374;6.594;2022-11-20T12:18:15;36.42;;;22.27;;
22470;SDS011;11402;51.374;6.594;2022-11-20T12:20:58;35.75;;;21.40;;
22470;SDS011;11402;51.374;6.594;2022-11-20T12:26:08;36.45;;;20.85;;
22470;SDS011;11402;51.374;6.594;2022-11-20T12:31:42;34.60;;;19.95;;
22470;SDS011;11402;51.374;6.594;2022-11-20T12:34:39;35.05;;;21.08;;
22470;SDS011;11402;51.374;6.594;2022-11-20T12:37:20;32.45;;;20.65;;
22470;SDS011;11402;51.374;6.594;2022-11-20T12:39:57;42.45;;;23.33;;
22470;SDS011;11402;51.374;6.594;2022-11-20T12:45:38;36.40;;;22.85;;
22470;SDS011;11402;51.374;6.594;2022-11-20T13:05:21;34.67;;;21.02;;
22470;SDS011;11402;51.374;6.594;2022-11-20T13:07:56;36.58;;;22.30;;
22470;SDS011;11402;51.374;6.594;2022-11-20T13:16:33;38.80;;;22.27;;
22470;SDS011;11402;51.374;6.594;2022-11-20T13:19:16;37.58;;;22.55;;
22470;SDS011;11402;51.374;6.594;2022-11-20T13:21:44;40.17;;;23.15;;
22470;SDS011;11402;51.374;6.594;2022-11-20T13:29:44;35.55;;;22.58;;
22470;SDS011;11402;51.374;6.594;2022-11-20T13:32:14;40.63;;;23.95;;
22470;SDS011;11402;51.374;6.594;2022-11-20T13:34:55;40.22;;;24.15;;
22470;SDS011;11402;51.374;6.594;2022-11-20T13:37:27;40.65;;;25.13;;
22470;SDS011;11402;51.374;6.594;2022-11-20T13:40:05;43.28;;;24.33;;
22470;SDS011;11402;51.374;6.594;2022-11-20T13:42:56;38.67;;;23.77;;
22470;SDS011;11402;51.374;6.594;2022-11-20T13:45:29;39.47;;;23.95;;
22470;SDS011;11402;51.374;6.594;2022-11-20T13:47:57;40.03;;;23.63;;
22470;SDS011;11402;51.374;6.594;2022-11-20T13:50:39;37.88;;;23.42;;
22470;SDS011;11402;51.374;6.594;2022-11-20T13:53:20;42.58;;;25.50;;
22470;SDS011;11402;51.374;6.594;2022-11-20T13:56:11;46.55;;;28.88;;
22470;SDS011;11402;51.374;6.594;2022-11-20T13:58:55;44.63;;;28.42;;
22470;SDS011;11402;51.374;6.594;2022-11-20T14:01:33;40.80;;;26.50;;
22470;SDS011;11402;51.374;6.594;2022-11-20T14:03:59;43.15;;;25.70;;
22470;SDS011;11402;51.374;6.594;2022-11-20T14:06:34;43.42;;;25.67;;
22470;SDS011;11402;51.374;6.594;2022-11-20T14:09:10;42.97;;;25.80;;
22470;SDS011;11402;51.374;6.594;2022-11-20T14:11:45;42.78;;;25.15;;
22470;SDS011;11402;51.374;6.594;2022-11-20T14:14:15;44.95;;;26.15;;
22470;SDS011;11402;51.374;6.594;2022-11-20T14:16:42;42.10;;;26.60;;
22470;SDS011;11402;51.374;6.594;2022-11-20T14:19:17;42.60;;;26.08;;
22470;SDS011;11402;51.374;6.594;2022-11-20T14:21:52;44.53;;;26.92;;
22470;SDS011;11402;51.374;6.594;2022-11-20T14:24:33;44.45;;;26.33;;
22470;SDS011;11402;51.374;6.594;2022-11-20T14:26:59;44.67;;;25.63;;
22470;SDS011;11402;51.374;6.594;2022-11-20T14:29:29;43.70;;;25.48;;
22470;SDS011;11402;51.374;6.594;2022-11-20T14:31:59;42.83;;;25.85;;
22470;SDS011;11402;51.374;6.594;2022-11-20T14:34:27;51.15;;;28.60;;
22470;SDS011;11402;51.374;6.594;2022-11-20T14:36:58;43.92;;;26.65;;
22470;SDS011;11402;51.374;6.594;2022-11-20T14:39:30;51.72;;;29.48;;
22470;SDS011;11402;51.374;6.594;2022-11-20T14:41:59;45.53;;;26.67;;
22470;SDS011;11402;51.374;6.594;2022-11-20T14:44:33;48.03;;;28.50;;
22470;SDS011;11402;51.374;6.594;2022-11-20T14:47:01;52.70;;;31.23;;
22470;SDS011;11402;51.374;6.594;2022-11-20T14:49:29;69.50;;;42.15;;
22470;SDS011;11402;51.374;6.594;2022-11-20T14:52:00;60.95;;;36.85;;
22470;SDS011;11402;51.374;6.594;2022-11-20T14:54:46;53.28;;;31.00;;
22470;SDS011;11402;51.374;6.594;2022-11-20T14:57:24;53.75;;;29.55;;
22470;SDS011;11402;51.374;6.594;2022-11-20T15:00:03;55.97;;;32.22;;
22470;SDS011;11402;51.374;6.594;2022-11-20T15:02:29;59.30;;;32.45;;
22470;SDS011;11402;51.374;6.594;2022-11-20T15:04:59;59.83;;;32.83;;
22470;SDS011;11402;51.374;6.594;2022-11-20T15:07:30;54.53;;;29.83;;
22470;SDS011;11402;51.374;6.594;2022-11-20T15:10:08;52.83;;;29.25;;
22470;SDS011;11402;51.374;6.594;2022-11-20T15:12:37;51.75;;;28.27;;
22470;SDS011;11402;51.374;6.594;2022-11-20T15:15:10;52.30;;;28.25;;
22470;SDS011;11402;51.374;6.594;2022-11-20T15:17:39;53.30;;;31.67;;
22470;SDS011;11402;51.374;6.594;2022-11-20T15:20:09;58.38;;;33.08;;
22470;SDS011;11402;51.374;6.594;2022-11-20T15:22:39;52.17;;;29.55;;
22470;SDS011;11402;51.374;6.594;2022-11-20T15:25:11;46.25;;;29.38;;
22470;SDS011;11402;51.374;6.594;2022-11-20T15:27:37;50.85;;;32.22;;
22470;SDS011;11402;51.374;6.594;2022-11-20T15:30:08;50.80;;;29.98;;
22470;SDS011;11402;51.374;6.594;2022-11-20T15:32:42;53.30;;;30.38;;
22470;SDS011;11402;51.374;6.594;2022-11-20T15:35:08;51.53;;;28.35;;
22470;SDS011;11402;51.374;6.594;2022-11-20T15:37:35;45.95;;;27.58;;
22470;SDS011;11402;51.374;6.594;2022-11-20T15:40:01;45.78;;;26.58;;
22470;SDS011;11402;51.374;6.594;2022-11-20T15:42:28;46.33;;;26.88;;
22470;SDS011;11402;51.374;6.594;2022-11-20T15:44:53;44.25;;;25.25;;
22470;SDS011;11402;51.374;6.594;2022-11-20T15:47:19;44.63;;;26.25;;
22470;SDS011;11402;51.374;6.594;2022-11-20T15:49:49;44.80;;;25.35;;
22470;SDS011;11402;51.374;6.594;2022-11-20T15:52:14;51.22;;;29.52;;
22470;SDS011;11402;51.374;6.594;2022-11-20T15:54:41;43.83;;;27.85;;
22470;SDS011;11402;51.374;6.594;2022-11-20T15:57:06;47.28;;;29.42;;
22470;SDS011;11402;51.374;6.594;2022-11-20T15:59:32;55.85;;;35.30;;
22470;SDS011;11402;51.374;6.594;2022-11-20T16:01:58;50.60;;;31.80;;
22470;SDS011;11402;51.374;6.594;2022-11-20T16:04:23;45.13;;;27.42;;